Aviation Digital Data Service (ADDS)

Output produced by METARs form (1841 UTC 27 July 2017)
found at http://aviationweather.gov/adds/metars/
 
KMIV 271731Z 2718/2818 20005KT P6SM OVC020 
     FM272000 18007KT P6SM SCT020 OVC050 
     FM280000 VRB03KT P6SM VCTS SCT040CB BKN150 
     FM280300 VRB04KT P6SM BKN150 BKN250 
     FM280700 VRB03KT P6SM SCT025 OVC050 
     FM281000 VRB03KT 3SM BR BKN008 OVC015 
     FM281500 VRB05KT 4SM -SHRA BR BKN008 OVC015